AirNav   Everest Fuels
 
 887 users online  

WS67 Vietmeier Airport
Herbster, Wisconsin, USA

GOING TO HERBSTER?


FAA INFORMATION EFFECTIVE 26 JANUARY 2023

Location

FAA Identifier: WS67
Lat/Long: 46-47-59.7620N 091-12-30.6660W
46-47.996033N 091-12.511100W
46.7999339,-91.2085183
(estimated)
Elevation: 795 ft. / 242 m (estimated)
Variation: 01E (1990)
From city: 3 miles SE of HERBSTER, WI
Time zone: UTC -6 (UTC -5 during Daylight Saving Time)
Zip code: 54844

Airport Operations

Airport use: Private use. Permission required prior to landing
Activation date: 03/1992
Control tower: no
ARTCC: MINNEAPOLIS CENTER
FSS: GREEN BAY FLIGHT SERVICE STATION
Attendance: UNATNDD
Wind indicator: yes
Segmented circle: no

Airport Communications

WX AWOS-3PT at 4R5 (18 nm E): 119.375 (715-747-5519)
WX ASOS at ASX (19 nm SE): 126.775 (715-682-5541)

Airport Services

Runway Information

Runway 16/34

Dimensions: 2000 x 80 ft. / 610 x 24 m
Surface: turf
RUNWAY 16  RUNWAY 34
Traffic pattern: leftleft
Displaced threshold: 700 ft.700 ft.
Obstructions: 40 ft. trees, 100 ft. from runway40 ft. trees, 100 ft. from runway

Airport Ownership and Management from official FAA records

Ownership: Privately-owned
Owner: WALDEMAR J. VIETMEIER
7333 NICOLLET AVE SO
RICHFIELD, MN 55423
Phone 612-866-0237
Manager: WALDEMAR J. VIETMEIER
7333 NICOLLET AVE SO
RICKFIELD, MN 55423
Phone 612-866-0237

Airport Operational Statistics

Aircraft based on the field: 1
Single engine airplanes: 1
    

Additional Remarks

FOR CD CTC MINNEAPOLIS ARTCC AT 651-463-5588.

Instrument Procedures

There are no published instrument procedures at WS67.

Some nearby airports with instrument procedures:

4R5 - Major Gilbert Field Airport (18 nm E)
KASX - John F Kennedy Memorial Airport (19 nm SE)
KTWM - Richard B Helgeson Airport (27 nm NW)
KDYT - Sky Harbor Airport (35 nm W)
3CU - Cable Union Airport (36 nm S)
 
Loc | Ops | Rwys | IFR | FBO | Links
Com | Nav | Svcs | Stats | Notes
Area around WS67 (Vietmeier Airport)
 
Road maps at: MapQuest Bing Google
 
Aerial photo
No photo
 
Sectional chart

 
Airport distance calculator
Flying to Vietmeier Airport? Find the distance to fly.

From to WS67

Sunrise and sunset
Times for 27-Jan-2023
 Local
(UTC-6)
 Zulu
(UTC)
Morning civil twilight07:0313:03
Sunrise07:3613:36
Sunset16:5922:59
Evening civil twilight17:3223:32

Current date and time
Zulu (UTC)  27-Jan-2023 12:47:56
Local (UTC-6)  27-Jan-2023 06:47:56
 
METAR
K4R5 
18nm E 
271235Z AUTO 20003KT 4SM -SN SCT022 OVC036 M09/M11 A2938 RMK AO2 T10861106
KASX 
19nm SE 
271236Z AUTO 20012G16KT 1 1/2SM -SN BKN021 OVC048 M08/M11 A2937 RMK AO2 P0001 T10781111
KTWM 
26nm NW 
271235Z AUTO 22004KT 1 1/4SM -SN BKN005 OVC023 M09/M09 A2932 RMK AO2
KDYT 
34nm W 
271235Z AUTO 00000KT 1/2SM -SN BR BKN004 BKN014 OVC021 M08/M10 A2936 RMK AO2
TAF
KDLH 
41nm W 
271125Z 2712/2812 21013G22KT 1SM -SN BR OVC014 FM271300 23014G25KT 4SM BR VCSH OVC013 FM271500 30017G30KT 6SM BLSN BKN015 FM280400 30015G24KT P6SM SCT025
KHYR 
48nm S 
271125Z 2712/2812 19012KT 3SM -SN BR OVC020 TEMPO 2712/2716 1SM -SN BKN010 FM271600 25013G24KT 3SM BR VCSH OVC009 FM271800 28015G22KT P6SM OVC016 FM280600 28009KT P6SM SCT023
KIWD 
48nm E 
271147Z 2712/2812 18015G25KT 3SM -SHSN OVC025 WS020/21050KT FM271500 20015G30KT 3/4SM -SHSN BLSN OVC016 FM271700 25017G28KT 3SM -SHSN BLSN BKN015 FM280000 29014G24KT P6SM BKN015 FM280900 29009G14KT P6SM BKN015
NOTAMs
Click for the latest NOTAMs
NOTAMs are issued by the DoD/FAA and will open in a separate window not controlled by AirNav.

 

 
 

Would you like to see your business listed on this page?

 If your business provides an interesting product or service to pilots, flight crews, aircraft, or users of the Vietmeier Airport, you should consider listing it here.  To start the listing process, click on the button below
 
Add a business
 

Other Pages about Vietmeier Airport

Update a link
 
Copyright © AirNav, LLC. All rights reserved. Privacy Policy  Contact